sensor_id;sensor_type;location;lat;lon;timestamp;temperature;humidity
18906;DHT22;9585;51.018;4.282;2023-03-18T00:01:02;11.50;99.90
18906;DHT22;9585;51.018;4.282;2023-03-18T00:03:33;11.50;99.90
18906;DHT22;9585;51.018;4.282;2023-03-18T00:06:06;11.40;99.90
18906;DHT22;9585;51.018;4.282;2023-03-18T00:08:34;11.40;99.90
18906;DHT22;9585;51.018;4.282;2023-03-18T00:11:02;11.40;99.90
18906;DHT22;9585;51.018;4.282;2023-03-18T00:13:30;11.40;99.90
18906;DHT22;9585;51.018;4.282;2023-03-18T00:15:58;11.40;99.90
18906;DHT22;9585;51.018;4.282;2023-03-18T00:18:25;11.40;99.90
18906;DHT22;9585;51.018;4.282;2023-03-18T00:20:54;11.40;99.90
18906;DHT22;9585;51.018;4.282;2023-03-18T00:23:23;11.30;99.90
18906;DHT22;9585;51.018;4.282;2023-03-18T00:25:52;11.30;99.90
18906;DHT22;9585;51.018;4.282;2023-03-18T00:28:21;11.30;99.90
18906;DHT22;9585;51.018;4.282;2023-03-18T00:30:49;11.20;99.90
18906;DHT22;9585;51.018;4.282;2023-03-18T00:33:17;11.20;99.90
18906;DHT22;9585;51.018;4.282;2023-03-18T00:35:45;11.20;99.90
18906;DHT22;9585;51.018;4.282;2023-03-18T00:38:14;11.20;99.90
18906;DHT22;9585;51.018;4.282;2023-03-18T00:40:46;11.20;99.90
18906;DHT22;9585;51.018;4.282;2023-03-18T00:43:26;11.20;99.90
18906;DHT22;9585;51.018;4.282;2023-03-18T00:45:57;11.10;99.90
18906;DHT22;9585;51.018;4.282;2023-03-18T00:48:25;11.20;99.90
18906;DHT22;9585;51.018;4.282;2023-03-18T00:50:52;11.20;99.90
18906;DHT22;9585;51.018;4.282;2023-03-18T00:53:21;11.20;99.90
18906;DHT22;9585;51.018;4.282;2023-03-18T00:55:51;11.10;99.90
18906;DHT22;9585;51.018;4.282;2023-03-18T00:58:18;11.20;99.90
18906;DHT22;9585;51.018;4.282;2023-03-18T01:00:46;11.20;99.90
18906;DHT22;9585;51.018;4.282;2023-03-18T01:03:13;11.20;99.90
18906;DHT22;9585;51.018;4.282;2023-03-18T01:05:41;11.20;99.90
18906;DHT22;9585;51.018;4.282;2023-03-18T01:08:11;11.20;99.90
18906;DHT22;9585;51.018;4.282;2023-03-18T01:10:40;11.20;99.90
18906;DHT22;9585;51.018;4.282;2023-03-18T01:13:07;11.10;99.90
18906;DHT22;9585;51.018;4.282;2023-03-18T01:15:35;11.10;99.90
18906;DHT22;9585;51.018;4.282;2023-03-18T01:18:02;11.10;99.90
18906;DHT22;9585;51.018;4.282;2023-03-18T01:20:30;11.10;99.90
18906;DHT22;9585;51.018;4.282;2023-03-18T01:22:57;11.10;99.90
18906;DHT22;9585;51.018;4.282;2023-03-18T01:25:25;11.10;99.90
18906;DHT22;9585;51.018;4.282;2023-03-18T01:27:54;11.20;99.90
18906;DHT22;9585;51.018;4.282;2023-03-18T01:30:23;11.10;99.90
18906;DHT22;9585;51.018;4.282;2023-03-18T01:32:50;11.10;99.90
18906;DHT22;9585;51.018;4.282;2023-03-18T01:35:18;11.10;99.90
18906;DHT22;9585;51.018;4.282;2023-03-18T01:37:46;11.10;99.90
18906;DHT22;9585;51.018;4.282;2023-03-18T01:40:15;11.10;99.90
18906;DHT22;9585;51.018;4.282;2023-03-18T01:42:45;11.00;99.90
18906;DHT22;9585;51.018;4.282;2023-03-18T01:45:21;11.00;99.90
18906;DHT22;9585;51.018;4.282;2023-03-18T01:47:49;11.00;99.90
18906;DHT22;9585;51.018;4.282;2023-03-18T01:50:19;11.00;99.90
18906;DHT22;9585;51.018;4.282;2023-03-18T01:52:50;11.00;99.90
18906;DHT22;9585;51.018;4.282;2023-03-18T01:55:20;11.00;99.90
18906;DHT22;9585;51.018;4.282;2023-03-18T01:57:49;11.00;99.90
18906;DHT22;9585;51.018;4.282;2023-03-18T02:00:19;10.90;99.90
18906;DHT22;9585;51.018;4.282;2023-03-18T02:02:51;11.00;99.90
18906;DHT22;9585;51.018;4.282;2023-03-18T02:05:21;10.90;99.90
18906;DHT22;9585;51.018;4.282;2023-03-18T02:07:52;10.90;99.90
18906;DHT22;9585;51.018;4.282;2023-03-18T02:10:21;10.90;99.90
18906;DHT22;9585;51.018;4.282;2023-03-18T02:12:53;10.90;99.90
18906;DHT22;9585;51.018;4.282;2023-03-18T02:15:26;10.90;99.90
18906;DHT22;9585;51.018;4.282;2023-03-18T02:17:58;10.90;99.90
18906;DHT22;9585;51.018;4.282;2023-03-18T02:20:44;10.80;99.90
18906;DHT22;9585;51.018;4.282;2023-03-18T02:23:20;10.80;99.90
18906;DHT22;9585;51.018;4.282;2023-03-18T02:25:53;10.80;99.90
18906;DHT22;9585;51.018;4.282;2023-03-18T02:28:25;10.80;99.90
18906;DHT22;9585;51.018;4.282;2023-03-18T02:30:57;10.70;99.90
18906;DHT22;9585;51.018;4.282;2023-03-18T02:33:28;10.80;99.90
18906;DHT22;9585;51.018;4.282;2023-03-18T02:36:01;10.70;99.90
18906;DHT22;9585;51.018;4.282;2023-03-18T02:38:29;10.80;99.90
18906;DHT22;9585;51.018;4.282;2023-03-18T02:40:56;10.80;99.90
18906;DHT22;9585;51.018;4.282;2023-03-18T02:43:26;10.70;99.90
18906;DHT22;9585;51.018;4.282;2023-03-18T02:46:11;10.70;99.90
18906;DHT22;9585;51.018;4.282;2023-03-18T02:48:43;10.70;99.90
18906;DHT22;9585;51.018;4.282;2023-03-18T02:51:12;10.60;99.90
18906;DHT22;9585;51.018;4.282;2023-03-18T02:53:41;10.60;99.90
18906;DHT22;9585;51.018;4.282;2023-03-18T02:56:09;10.50;99.90
18906;DHT22;9585;51.018;4.282;2023-03-18T02:58:38;10.50;99.90
18906;DHT22;9585;51.018;4.282;2023-03-18T03:01:06;10.50;99.90
18906;DHT22;9585;51.018;4.282;2023-03-18T03:03:34;10.50;99.90
18906;DHT22;9585;51.018;4.282;2023-03-18T03:06:02;10.40;99.90
18906;DHT22;9585;51.018;4.282;2023-03-18T03:08:29;10.40;99.90
18906;DHT22;9585;51.018;4.282;2023-03-18T03:10:57;10.30;99.90
18906;DHT22;9585;51.018;4.282;2023-03-18T03:13:25;10.30;99.90
18906;DHT22;9585;51.018;4.282;2023-03-18T03:15:54;10.20;99.90
18906;DHT22;9585;51.018;4.282;2023-03-18T03:18:21;10.10;99.90
18906;DHT22;9585;51.018;4.282;2023-03-18T03:20:49;10.10;99.90
18906;DHT22;9585;51.018;4.282;2023-03-18T03:23:17;10.00;99.90
18906;DHT22;9585;51.018;4.282;2023-03-18T03:25:44;9.90;99.90
18906;DHT22;9585;51.018;4.282;2023-03-18T03:28:13;9.90;99.90
18906;DHT22;9585;51.018;4.282;2023-03-18T03:30:41;9.90;99.90
18906;DHT22;9585;51.018;4.282;2023-03-18T03:33:10;9.90;99.90
18906;DHT22;9585;51.018;4.282;2023-03-18T03:35:38;9.80;99.90
18906;DHT22;9585;51.018;4.282;2023-03-18T03:38:06;9.80;99.90
18906;DHT22;9585;51.018;4.282;2023-03-18T03:40:34;9.70;99.90
18906;DHT22;9585;51.018;4.282;2023-03-18T03:43:01;9.60;99.90
18906;DHT22;9585;51.018;4.282;2023-03-18T03:45:29;9.60;99.90
18906;DHT22;9585;51.018;4.282;2023-03-18T03:47:57;9.50;99.90
18906;DHT22;9585;51.018;4.282;2023-03-18T03:50:26;9.50;99.90
18906;DHT22;9585;51.018;4.282;2023-03-18T03:52:53;9.40;99.90
18906;DHT22;9585;51.018;4.282;2023-03-18T03:55:21;9.40;99.90
18906;DHT22;9585;51.018;4.282;2023-03-18T03:57:48;9.40;99.90
18906;DHT22;9585;51.018;4.282;2023-03-18T04:00:18;9.30;99.90
18906;DHT22;9585;51.018;4.282;2023-03-18T04:02:47;9.30;99.90
18906;DHT22;9585;51.018;4.282;2023-03-18T04:05:16;9.20;99.90
18906;DHT22;9585;51.018;4.282;2023-03-18T04:07:46;9.20;99.90
18906;DHT22;9585;51.018;4.282;2023-03-18T04:10:16;9.20;99.90
18906;DHT22;9585;51.018;4.282;2023-03-18T04:12:45;9.10;99.90
18906;DHT22;9585;51.018;4.282;2023-03-18T04:15:14;9.10;99.90
18906;DHT22;9585;51.018;4.282;2023-03-18T04:17:42;9.10;99.90
18906;DHT22;9585;51.018;4.282;2023-03-18T04:20:11;9.00;99.90
18906;DHT22;9585;51.018;4.282;2023-03-18T04:22:38;9.00;99.90
18906;DHT22;9585;51.018;4.282;2023-03-18T04:25:08;8.90;99.90
18906;DHT22;9585;51.018;4.282;2023-03-18T04:27:37;8.90;99.90
18906;DHT22;9585;51.018;4.282;2023-03-18T04:30:05;8.90;99.90
18906;DHT22;9585;51.018;4.282;2023-03-18T04:32:34;8.80;99.90
18906;DHT22;9585;51.018;4.282;2023-03-18T04:35:01;8.80;99.90
18906;DHT22;9585;51.018;4.282;2023-03-18T04:37:29;8.80;99.90
18906;DHT22;9585;51.018;4.282;2023-03-18T04:39:56;8.70;99.90
18906;DHT22;9585;51.018;4.282;2023-03-18T04:42:25;8.60;99.90
18906;DHT22;9585;51.018;4.282;2023-03-18T04:44:52;8.60;99.90
18906;DHT22;9585;51.018;4.282;2023-03-18T04:47:20;8.60;99.90
18906;DHT22;9585;51.018;4.282;2023-03-18T04:49:47;8.50;99.90
18906;DHT22;9585;51.018;4.282;2023-03-18T04:52:14;8.50;99.90
18906;DHT22;9585;51.018;4.282;2023-03-18T04:54:42;8.50;99.90
18906;DHT22;9585;51.018;4.282;2023-03-18T04:57:09;8.50;99.90
18906;DHT22;9585;51.018;4.282;2023-03-18T04:59:38;8.50;99.90
18906;DHT22;9585;51.018;4.282;2023-03-18T05:02:06;8.40;99.90
18906;DHT22;9585;51.018;4.282;2023-03-18T05:04:34;8.40;99.90
18906;DHT22;9585;51.018;4.282;2023-03-18T05:07:01;8.40;99.90
18906;DHT22;9585;51.018;4.282;2023-03-18T05:09:29;8.40;99.90
18906;DHT22;9585;51.018;4.282;2023-03-18T05:11:56;8.40;99.90
18906;DHT22;9585;51.018;4.282;2023-03-18T05:14:23;8.30;99.90
18906;DHT22;9585;51.018;4.282;2023-03-18T05:16:53;8.30;99.90
18906;DHT22;9585;51.018;4.282;2023-03-18T05:19:20;8.30;99.90
18906;DHT22;9585;51.018;4.282;2023-03-18T05:21:48;8.30;99.90
18906;DHT22;9585;51.018;4.282;2023-03-18T05:24:15;8.30;99.90
18906;DHT22;9585;51.018;4.282;2023-03-18T05:26:43;8.30;99.90
18906;DHT22;9585;51.018;4.282;2023-03-18T05:29:10;8.30;99.90
18906;DHT22;9585;51.018;4.282;2023-03-18T05:31:38;8.30;99.90
18906;DHT22;9585;51.018;4.282;2023-03-18T05:34:07;8.30;99.90
18906;DHT22;9585;51.018;4.282;2023-03-18T05:36:34;8.30;99.90
18906;DHT22;9585;51.018;4.282;2023-03-18T05:39:02;8.30;99.90
18906;DHT22;9585;51.018;4.282;2023-03-18T05:41:29;8.30;99.90
18906;DHT22;9585;51.018;4.282;2023-03-18T05:43:57;8.30;99.90
18906;DHT22;9585;51.018;4.282;2023-03-18T05:46:24;8.20;99.90
18906;DHT22;9585;51.018;4.282;2023-03-18T05:48:51;8.20;99.90
18906;DHT22;9585;51.018;4.282;2023-03-18T05:51:20;8.20;99.90
18906;DHT22;9585;51.018;4.282;2023-03-18T05:53:48;8.20;99.90
18906;DHT22;9585;51.018;4.282;2023-03-18T05:56:15;8.20;99.90
18906;DHT22;9585;51.018;4.282;2023-03-18T05:58:43;8.20;99.90
18906;DHT22;9585;51.018;4.282;2023-03-18T06:01:11;8.20;99.90
18906;DHT22;9585;51.018;4.282;2023-03-18T06:03:38;8.20;99.90
18906;DHT22;9585;51.018;4.282;2023-03-18T06:06:06;8.20;99.90
18906;DHT22;9585;51.018;4.282;2023-03-18T06:08:35;8.20;99.90
18906;DHT22;9585;51.018;4.282;2023-03-18T06:11:02;8.30;99.90
18906;DHT22;9585;51.018;4.282;2023-03-18T06:13:29;8.30;99.90
18906;DHT22;9585;51.018;4.282;2023-03-18T06:15:57;8.40;99.90
18906;DHT22;9585;51.018;4.282;2023-03-18T06:18:25;8.50;99.90
18906;DHT22;9585;51.018;4.282;2023-03-18T06:20:53;8.60;99.90
18906;DHT22;9585;51.018;4.282;2023-03-18T06:23:21;8.90;99.90
18906;DHT22;9585;51.018;4.282;2023-03-18T06:25:50;9.30;99.90
18906;DHT22;9585;51.018;4.282;2023-03-18T06:28:17;10.10;99.90
18906;DHT22;9585;51.018;4.282;2023-03-18T06:33:30;11.00;99.90
18906;DHT22;9585;51.018;4.282;2023-03-18T06:35:58;11.20;99.90
18906;DHT22;9585;51.018;4.282;2023-03-18T06:38:27;11.30;99.90
18906;DHT22;9585;51.018;4.282;2023-03-18T06:40:56;11.40;99.90
18906;DHT22;9585;51.018;4.282;2023-03-18T06:43:24;11.50;99.90
18906;DHT22;9585;51.018;4.282;2023-03-18T06:45:52;11.70;99.90
18906;DHT22;9585;51.018;4.282;2023-03-18T06:48:20;11.90;99.90
18906;DHT22;9585;51.018;4.282;2023-03-18T06:50:48;12.40;99.90
18906;DHT22;9585;51.018;4.282;2023-03-18T06:53:15;13.00;99.90
18906;DHT22;9585;51.018;4.282;2023-03-18T06:55:43;13.70;99.90
18906;DHT22;9585;51.018;4.282;2023-03-18T06:58:11;14.20;99.90
18906;DHT22;9585;51.018;4.282;2023-03-18T07:00:39;14.90;99.90
18906;DHT22;9585;51.018;4.282;2023-03-18T07:03:09;15.40;99.90
18906;DHT22;9585;51.018;4.282;2023-03-18T07:05:38;15.80;99.90
18906;DHT22;9585;51.018;4.282;2023-03-18T07:08:07;15.90;99.90
18906;DHT22;9585;51.018;4.282;2023-03-18T07:10:35;15.80;99.90
18906;DHT22;9585;51.018;4.282;2023-03-18T07:13:03;15.30;99.90
18906;DHT22;9585;51.018;4.282;2023-03-18T07:15:34;14.80;99.90
18906;DHT22;9585;51.018;4.282;2023-03-18T07:18:05;14.40;99.90
18906;DHT22;9585;51.018;4.282;2023-03-18T07:20:34;14.20;99.90
18906;DHT22;9585;51.018;4.282;2023-03-18T07:23:02;14.40;99.90
18906;DHT22;9585;51.018;4.282;2023-03-18T07:25:30;14.40;99.90
18906;DHT22;9585;51.018;4.282;2023-03-18T07:27:58;14.30;99.90
18906;DHT22;9585;51.018;4.282;2023-03-18T07:30:26;14.60;99.90
18906;DHT22;9585;51.018;4.282;2023-03-18T07:32:55;14.40;99.90
18906;DHT22;9585;51.018;4.282;2023-03-18T07:35:22;14.30;99.90
18906;DHT22;9585;51.018;4.282;2023-03-18T07:37:50;14.30;99.90
18906;DHT22;9585;51.018;4.282;2023-03-18T07:40:20;14.30;99.90
18906;DHT22;9585;51.018;4.282;2023-03-18T07:42:58;14.40;99.90
18906;DHT22;9585;51.018;4.282;2023-03-18T07:45:26;14.70;99.90
18906;DHT22;9585;51.018;4.282;2023-03-18T07:47:55;14.70;99.90
18906;DHT22;9585;51.018;4.282;2023-03-18T07:50:23;14.60;99.90
18906;DHT22;9585;51.018;4.282;2023-03-18T07:52:50;14.80;99.90
18906;DHT22;9585;51.018;4.282;2023-03-18T07:55:17;14.90;99.90
18906;DHT22;9585;51.018;4.282;2023-03-18T07:57:45;14.80;99.90
18906;DHT22;9585;51.018;4.282;2023-03-18T08:00:14;14.80;99.90
18906;DHT22;9585;51.018;4.282;2023-03-18T08:02:42;14.70;99.90
18906;DHT22;9585;51.018;4.282;2023-03-18T08:05:11;14.70;99.90
18906;DHT22;9585;51.018;4.282;2023-03-18T08:07:40;14.90;99.90
18906;DHT22;9585;51.018;4.282;2023-03-18T08:10:09;15.00;99.90
18906;DHT22;9585;51.018;4.282;2023-03-18T08:12:39;15.60;99.90
18906;DHT22;9585;51.018;4.282;2023-03-18T08:15:07;15.80;99.90
18906;DHT22;9585;51.018;4.282;2023-03-18T08:17:37;15.70;99.90
18906;DHT22;9585;51.018;4.282;2023-03-18T08:20:05;15.50;99.90
18906;DHT22;9585;51.018;4.282;2023-03-18T08:22:34;15.40;99.90
18906;DHT22;9585;51.018;4.282;2023-03-18T08:25:02;15.20;99.90
18906;DHT22;9585;51.018;4.282;2023-03-18T08:27:29;15.10;99.90
18906;DHT22;9585;51.018;4.282;2023-03-18T08:29:57;15.00;99.90
18906;DHT22;9585;51.018;4.282;2023-03-18T08:32:24;14.70;99.90
18906;DHT22;9585;51.018;4.282;2023-03-18T08:34:57;14.50;99.90
18906;DHT22;9585;51.018;4.282;2023-03-18T08:37:24;14.30;99.90
18906;DHT22;9585;51.018;4.282;2023-03-18T08:39:53;14.30;99.90
18906;DHT22;9585;51.018;4.282;2023-03-18T08:42:21;14.20;99.90
18906;DHT22;9585;51.018;4.282;2023-03-18T08:44:49;14.00;99.90
18906;DHT22;9585;51.018;4.282;2023-03-18T08:47:16;13.80;99.90
18906;DHT22;9585;51.018;4.282;2023-03-18T08:49:44;13.80;99.90
18906;DHT22;9585;51.018;4.282;2023-03-18T08:52:12;13.80;99.90
18906;DHT22;9585;51.018;4.282;2023-03-18T08:54:39;13.90;99.90
18906;DHT22;9585;51.018;4.282;2023-03-18T08:57:10;13.90;99.90
18906;DHT22;9585;51.018;4.282;2023-03-18T08:59:38;14.00;99.90
18906;DHT22;9585;51.018;4.282;2023-03-18T09:02:06;13.80;99.90
18906;DHT22;9585;51.018;4.282;2023-03-18T09:04:37;13.80;99.90
18906;DHT22;9585;51.018;4.282;2023-03-18T09:07:04;13.80;99.90
18906;DHT22;9585;51.018;4.282;2023-03-18T09:09:31;13.80;99.90
18906;DHT22;9585;51.018;4.282;2023-03-18T09:11:58;13.70;99.90
18906;DHT22;9585;51.018;4.282;2023-03-18T09:14:27;13.70;99.90
18906;DHT22;9585;51.018;4.282;2023-03-18T09:16:55;13.60;99.90
18906;DHT22;9585;51.018;4.282;2023-03-18T09:19:22;13.40;99.90
18906;DHT22;9585;51.018;4.282;2023-03-18T09:21:50;13.40;99.90
18906;DHT22;9585;51.018;4.282;2023-03-18T09:24:17;13.40;99.90
18906;DHT22;9585;51.018;4.282;2023-03-18T09:26:45;13.30;99.90
18906;DHT22;9585;51.018;4.282;2023-03-18T09:29:13;13.30;99.90
18906;DHT22;9585;51.018;4.282;2023-03-18T09:31:42;13.30;99.90
18906;DHT22;9585;51.018;4.282;2023-03-18T09:34:12;13.20;99.90
18906;DHT22;9585;51.018;4.282;2023-03-18T09:36:43;13.20;99.90
18906;DHT22;9585;51.018;4.282;2023-03-18T09:39:16;13.20;99.90
18906;DHT22;9585;51.018;4.282;2023-03-18T09:44:36;13.20;99.90
18906;DHT22;9585;51.018;4.282;2023-03-18T09:47:20;13.20;99.90
18906;DHT22;9585;51.018;4.282;2023-03-18T09:50:05;13.30;99.90
18906;DHT22;9585;51.018;4.282;2023-03-18T09:52:38;13.30;99.90
18906;DHT22;9585;51.018;4.282;2023-03-18T09:55:19;13.30;99.90
18906;DHT22;9585;51.018;4.282;2023-03-18T09:57:50;13.60;99.90
18906;DHT22;9585;51.018;4.282;2023-03-18T10:00:22;13.70;99.90
18906;DHT22;9585;51.018;4.282;2023-03-18T10:02:56;14.00;99.90
18906;DHT22;9585;51.018;4.282;2023-03-18T10:05:31;14.30;99.90
18906;DHT22;9585;51.018;4.282;2023-03-18T10:08:07;14.20;99.90
18906;DHT22;9585;51.018;4.282;2023-03-18T10:10:42;14.10;99.90
18906;DHT22;9585;51.018;4.282;2023-03-18T10:13:15;14.10;99.90
18906;DHT22;9585;51.018;4.282;2023-03-18T10:15:49;14.00;99.90
18906;DHT22;9585;51.018;4.282;2023-03-18T10:18:25;13.80;99.90
18906;DHT22;9585;51.018;4.282;2023-03-18T10:21:09;13.70;99.90
18906;DHT22;9585;51.018;4.282;2023-03-18T10:23:52;13.60;99.90
18906;DHT22;9585;51.018;4.282;2023-03-18T10:26:26;13.60;99.90
18906;DHT22;9585;51.018;4.282;2023-03-18T10:29:05;13.60;99.90
18906;DHT22;9585;51.018;4.282;2023-03-18T10:31:45;13.60;99.90
18906;DHT22;9585;51.018;4.282;2023-03-18T10:34:18;13.70;99.90
18906;DHT22;9585;51.018;4.282;2023-03-18T10:36:53;13.60;99.90
18906;DHT22;9585;51.018;4.282;2023-03-18T10:39:27;13.70;99.90
18906;DHT22;9585;51.018;4.282;2023-03-18T10:41:59;13.70;99.90
18906;DHT22;9585;51.018;4.282;2023-03-18T10:44:35;13.60;99.90
18906;DHT22;9585;51.018;4.282;2023-03-18T10:47:12;13.70;99.90
18906;DHT22;9585;51.018;4.282;2023-03-18T10:49:47;13.80;99.90
18906;DHT22;9585;51.018;4.282;2023-03-18T10:52:19;14.00;99.90
18906;DHT22;9585;51.018;4.282;2023-03-18T10:54:52;14.30;99.90
18906;DHT22;9585;51.018;4.282;2023-03-18T10:57:20;14.70;99.90
18906;DHT22;9585;51.018;4.282;2023-03-18T10:59:50;14.80;99.90
18906;DHT22;9585;51.018;4.282;2023-03-18T11:02:21;15.10;99.90
18906;DHT22;9585;51.018;4.282;2023-03-18T11:04:55;15.30;99.90
18906;DHT22;9585;51.018;4.282;2023-03-18T11:07:29;15.70;99.90
18906;DHT22;9585;51.018;4.282;2023-03-18T11:10:11;16.10;99.90
18906;DHT22;9585;51.018;4.282;2023-03-18T11:12:39;16.30;99.90
18906;DHT22;9585;51.018;4.282;2023-03-18T11:15:10;16.20;99.90
18906;DHT22;9585;51.018;4.282;2023-03-18T11:17:47;16.50;99.90
18906;DHT22;9585;51.018;4.282;2023-03-18T11:20:23;16.60;99.90
18906;DHT22;9585;51.018;4.282;2023-03-18T11:22:53;16.50;99.90
18906;DHT22;9585;51.018;4.282;2023-03-18T11:25:36;16.60;99.90
18906;DHT22;9585;51.018;4.282;2023-03-18T11:28:12;16.70;99.90
18906;DHT22;9585;51.018;4.282;2023-03-18T11:30:46;16.70;99.90
18906;DHT22;9585;51.018;4.282;2023-03-18T11:33:15;16.70;99.90
18906;DHT22;9585;51.018;4.282;2023-03-18T11:35:49;16.60;99.90
18906;DHT22;9585;51.018;4.282;2023-03-18T11:38:18;16.90;99.90
18906;DHT22;9585;51.018;4.282;2023-03-18T11:40:46;17.20;99.90
18906;DHT22;9585;51.018;4.282;2023-03-18T11:43:19;16.90;99.90
18906;DHT22;9585;51.018;4.282;2023-03-18T11:45:58;16.70;99.90
18906;DHT22;9585;51.018;4.282;2023-03-18T11:48:31;16.80;99.90
18906;DHT22;9585;51.018;4.282;2023-03-18T11:51:30;16.40;99.90
18906;DHT22;9585;51.018;4.282;2023-03-18T11:57:10;16.10;99.90
18906;DHT22;9585;51.018;4.282;2023-03-18T11:59:44;15.80;99.90
18906;DHT22;9585;51.018;4.282;2023-03-18T12:02:29;15.80;99.90
18906;DHT22;9585;51.018;4.282;2023-03-18T12:05:12;15.80;99.90
18906;DHT22;9585;51.018;4.282;2023-03-18T12:08:01;15.80;99.90
18906;DHT22;9585;51.018;4.282;2023-03-18T12:10:32;15.70;99.90
18906;DHT22;9585;51.018;4.282;2023-03-18T12:13:15;15.60;99.90
18906;DHT22;9585;51.018;4.282;2023-03-18T12:15:49;15.70;99.90
18906;DHT22;9585;51.018;4.282;2023-03-18T12:18:37;16.00;99.90
18906;DHT22;9585;51.018;4.282;2023-03-18T12:21:21;16.30;99.90
18906;DHT22;9585;51.018;4.282;2023-03-18T12:24:06;16.50;99.90
18906;DHT22;9585;51.018;4.282;2023-03-18T12:26:42;16.50;99.90
18906;DHT22;9585;51.018;4.282;2023-03-18T12:29:41;16.50;99.90
18906;DHT22;9585;51.018;4.282;2023-03-18T12:32:23;16.60;99.90
18906;DHT22;9585;51.018;4.282;2023-03-18T12:35:05;16.80;99.90
18906;DHT22;9585;51.018;4.282;2023-03-18T12:37:42;16.90;99.90
18906;DHT22;9585;51.018;4.282;2023-03-18T12:46:07;16.90;99.90
18906;DHT22;9585;51.018;4.282;2023-03-18T12:48:49;17.00;99.90
18906;DHT22;9585;51.018;4.282;2023-03-18T12:51:22;17.10;99.90
18906;DHT22;9585;51.018;4.282;2023-03-18T12:53:55;17.20;99.90
18906;DHT22;9585;51.018;4.282;2023-03-18T12:56:26;17.20;99.90
18906;DHT22;9585;51.018;4.282;2023-03-18T12:59:02;17.00;99.90
18906;DHT22;9585;51.018;4.282;2023-03-18T13:01:35;17.00;99.90
18906;DHT22;9585;51.018;4.282;2023-03-18T13:04:09;16.90;99.90
18906;DHT22;9585;51.018;4.282;2023-03-18T13:06:41;16.80;99.90
18906;DHT22;9585;51.018;4.282;2023-03-18T13:09:23;16.80;99.90
18906;DHT22;9585;51.018;4.282;2023-03-18T13:12:03;16.90;99.90
18906;DHT22;9585;51.018;4.282;2023-03-18T13:14:42;16.90;99.90
18906;DHT22;9585;51.018;4.282;2023-03-18T13:17:14;16.70;99.90
18906;DHT22;9585;51.018;4.282;2023-03-18T13:19:42;16.60;99.90
18906;DHT22;9585;51.018;4.282;2023-03-18T13:22:31;16.30;99.90
18906;DHT22;9585;51.018;4.282;2023-03-18T13:25:12;16.30;99.90
18906;DHT22;9585;51.018;4.282;2023-03-18T13:28:03;16.30;99.90
18906;DHT22;9585;51.018;4.282;2023-03-18T13:30:50;16.30;99.90
18906;DHT22;9585;51.018;4.282;2023-03-18T13:33:31;16.30;99.90
18906;DHT22;9585;51.018;4.282;2023-03-18T13:39:18;16.60;99.90
18906;DHT22;9585;51.018;4.282;2023-03-18T13:42:11;16.70;99.90
18906;DHT22;9585;51.018;4.282;2023-03-18T13:44:47;16.70;99.90
18906;DHT22;9585;51.018;4.282;2023-03-18T13:47:17;16.70;99.90
18906;DHT22;9585;51.018;4.282;2023-03-18T13:49:45;16.70;99.90
18906;DHT22;9585;51.018;4.282;2023-03-18T13:52:24;16.80;99.90
18906;DHT22;9585;51.018;4.282;2023-03-18T13:54:52;17.00;99.90
18906;DHT22;9585;51.018;4.282;2023-03-18T13:57:44;17.00;99.90
18906;DHT22;9585;51.018;4.282;2023-03-18T14:00:28;17.00;99.90
18906;DHT22;9585;51.018;4.282;2023-03-18T14:03:17;16.90;99.90
18906;DHT22;9585;51.018;4.282;2023-03-18T14:05:47;17.00;99.90
18906;DHT22;9585;51.018;4.282;2023-03-18T14:08:44;17.00;99.90
18906;DHT22;9585;51.018;4.282;2023-03-18T14:11:46;16.60;99.90
18906;DHT22;9585;51.018;4.282;2023-03-18T14:20:26;16.60;99.90
18906;DHT22;9585;51.018;4.282;2023-03-18T14:22:55;16.50;99.90
18906;DHT22;9585;51.018;4.282;2023-03-18T14:25:44;16.40;99.90
18906;DHT22;9585;51.018;4.282;2023-03-18T14:28:22;16.30;99.90
18906;DHT22;9585;51.018;4.282;2023-03-18T14:37:04;16.80;99.90
18906;DHT22;9585;51.018;4.282;2023-03-18T14:39:42;16.80;99.90
18906;DHT22;9585;51.018;4.282;2023-03-18T14:42:18;16.70;99.90
18906;DHT22;9585;51.018;4.282;2023-03-18T14:44:53;16.70;99.90
18906;DHT22;9585;51.018;4.282;2023-03-18T14:47:25;16.70;99.90
18906;DHT22;9585;51.018;4.282;2023-03-18T14:49:59;16.60;99.90
18906;DHT22;9585;51.018;4.282;2023-03-18T14:52:31;16.60;99.90
18906;DHT22;9585;51.018;4.282;2023-03-18T14:55:03;16.70;99.90
18906;DHT22;9585;51.018;4.282;2023-03-18T14:57:32;16.70;99.90
18906;DHT22;9585;51.018;4.282;2023-03-18T15:00:01;16.70;99.90
18906;DHT22;9585;51.018;4.282;2023-03-18T15:02:33;16.60;99.90
18906;DHT22;9585;51.018;4.282;2023-03-18T15:05:05;16.70;99.90
18906;DHT22;9585;51.018;4.282;2023-03-18T15:07:34;16.70;99.90
18906;DHT22;9585;51.018;4.282;2023-03-18T15:10:06;16.80;99.90
18906;DHT22;9585;51.018;4.282;2023-03-18T15:12:35;16.80;99.90
18906;DHT22;9585;51.018;4.282;2023-03-18T15:15:04;16.80;99.90
18906;DHT22;9585;51.018;4.282;2023-03-18T15:17:31;16.60;99.90
18906;DHT22;9585;51.018;4.282;2023-03-18T15:19:59;16.60;99.90
18906;DHT22;9585;51.018;4.282;2023-03-18T15:22:30;16.60;99.90
18906;DHT22;9585;51.018;4.282;2023-03-18T15:25:00;16.60;99.90
18906;DHT22;9585;51.018;4.282;2023-03-18T15:27:29;16.60;99.90
18906;DHT22;9585;51.018;4.282;2023-03-18T15:30:00;16.70;99.90
18906;DHT22;9585;51.018;4.282;2023-03-18T15:32:29;16.60;99.90
18906;DHT22;9585;51.018;4.282;2023-03-18T15:35:10;16.40;99.90
18906;DHT22;9585;51.018;4.282;2023-03-18T15:37:43;16.30;99.90
18906;DHT22;9585;51.018;4.282;2023-03-18T15:40:27;16.20;99.90
18906;DHT22;9585;51.018;4.282;2023-03-18T15:42:56;16.10;99.90
18906;DHT22;9585;51.018;4.282;2023-03-18T15:45:26;16.00;99.90
18906;DHT22;9585;51.018;4.282;2023-03-18T15:47:55;16.00;99.90
18906;DHT22;9585;51.018;4.282;2023-03-18T15:50:29;15.80;99.90
18906;DHT22;9585;51.018;4.282;2023-03-18T15:53:13;15.80;99.90
18906;DHT22;9585;51.018;4.282;2023-03-18T15:55:49;15.80;99.90
18906;DHT22;9585;51.018;4.282;2023-03-18T15:58:23;15.80;99.90
18906;DHT22;9585;51.018;4.282;2023-03-18T16:00:52;15.80;99.90
18906;DHT22;9585;51.018;4.282;2023-03-18T16:03:22;15.80;99.90
18906;DHT22;9585;51.018;4.282;2023-03-18T16:05:54;15.80;99.90
18906;DHT22;9585;51.018;4.282;2023-03-18T16:08:25;15.90;99.90
18906;DHT22;9585;51.018;4.282;2023-03-18T16:10:56;15.80;99.90
18906;DHT22;9585;51.018;4.282;2023-03-18T16:13:28;15.70;99.90
18906;DHT22;9585;51.018;4.282;2023-03-18T16:15:59;15.80;99.90
18906;DHT22;9585;51.018;4.282;2023-03-18T16:18:26;15.70;99.90
18906;DHT22;9585;51.018;4.282;2023-03-18T16:20:54;15.70;99.90
18906;DHT22;9585;51.018;4.282;2023-03-18T16:23:22;15.70;99.90
18906;DHT22;9585;51.018;4.282;2023-03-18T16:25:52;15.60;99.90
18906;DHT22;9585;51.018;4.282;2023-03-18T16:28:25;15.50;99.90
18906;DHT22;9585;51.018;4.282;2023-03-18T16:30:54;15.50;99.90
18906;DHT22;9585;51.018;4.282;2023-03-18T16:33:23;15.50;99.90
18906;DHT22;9585;51.018;4.282;2023-03-18T16:35:55;15.40;99.90
18906;DHT22;9585;51.018;4.282;2023-03-18T16:38:24;15.40;99.90
18906;DHT22;9585;51.018;4.282;2023-03-18T16:40:56;15.30;99.90
18906;DHT22;9585;51.018;4.282;2023-03-18T16:43:25;15.30;99.90
18906;DHT22;9585;51.018;4.282;2023-03-18T16:45:57;15.10;99.90